Fairborn, OH (45324)

6:16 PM EST on February 07, 2016 (GMT -0500)
Byron | | Change Station
CLOSE
Current Station
Personal Weather Station
Location: Fairborn, OH
Elevation: 906 ft
Nearby Weather Stations

Elev 906 ft 39.78 °N, 83.99 °W | Updated 24 seconds ago

Mostly Cloudy
Mostly Cloudy
48.4 °F
Feels Like 48 °F
N
0.2
Wind Variable Wind from South
Gusts 2.5 mph

Today
High -- | Low -- °F
--% Chance of Precip.
Yesterday
High -- | Low -- °F
Precip. -- in
Pressure 29.88 in
Visibility 10.0 miles
Clouds Mostly Cloudy 14000 ft
Mostly Cloudy 25000 ft
Windchill 48 °F
Dew Point 21 °F
Humidity 34%
Rainfall 0.00 in
Snow Depth Not available.
7:38 AM 6:02 PM
Waning Crescent, 1% visible
METAR KFFO 072258Z 19011KT 10SM BKN140 BKN250 09/M07 A2985 RMK AO2A SLP117 T00931073
Pressure 29.88 in
Visibility 10.0 miles
Clouds Mostly Cloudy 14000 ft
Mostly Cloudy 25000 ft
Windchill 48 °F
Dew Point 21 °F
Humidity 34%
Rainfall 0.00 in
Snow Depth Not available.
7:38 AM 6:02 PM
Waning Crescent, 1% visible
METAR KFFO 072258Z 19011KT 10SM BKN140 BKN250 09/M07 A2985 RMK AO2A SLP117 T00931073

10-Day Weather Forecast

Almanac

Astronomy

Feb. 07, 2016 Rise Set
Actual Time
Civil Twilight
Nautical Twilight
Astronomical Twilight
Moon
Length of Visible Light
Length of Day
Tomorrow will be .
, % of the Moon is Illuminated

Today's Extremes

State Highs State Lows

Community

WunderPhotos

Upload Photos

1,891,325 photos uploaded!

WunderBlog® & News

Nearby

Air Quality

  Air Quality AQ Index Pollutant
Not available.

Snow Depth

Station Depth Elevation

Earthquake Activity

City Distance Mag. Time & Date
Minimum magnitude displayed is 2.5.

Coastal Water Temperatures

Place Temperature

Stations

Nearby Weather Stations

Station Location Temp. Windchill Dew Point Humidity Wind Precip. Elev Updated Type
                   

Watches & Warnings

There are currently no watches in effect.